MDUSA48 EGXW-EGAA
Flight info
| Callsign | MDUSA48 |
|---|---|
| Flight time | 1h 0m |
| Altitude | 16000 |
| Route | EGXW/20 DCT NISBI L60 PENIL L10 KELLY L10 DUFFY DCT EGAA/17 |
| Aircraft | B350/M-SGHIRWY/LB1 |
Departure
| Time | 2026-05-07 17:03 |
|---|---|
| Airport | RAF Waddington (EGXW) |
Arrival
| Time | 2026-05-07 18:03 |
|---|---|
| Airport | Belfast International Airport (EGAA) |
| Time | Latitude | Longitude | Altitude | Speed | Heading |
|---|---|---|---|---|---|
| 2026-05-07 16:45 | 53.16860 | -0.52716 | 234 ft | 0 kts | 28° |
| 2026-05-07 16:59 | 53.16869 | -0.52707 | 236 ft | 5 kts | 28° |
| 2026-05-07 16:59 | 53.16910 | -0.52759 | 235 ft | 13 kts | 297° |
| 2026-05-07 16:59 | 53.16952 | -0.52886 | 240 ft | 12 kts | 311° |
| 2026-05-07 16:59 | 53.17026 | -0.52858 | 241 ft | 13 kts | 33° |
| 2026-05-07 17:00 | 53.17103 | -0.52766 | 240 ft | 14 kts | 36° |
| 2026-05-07 17:00 | 53.17183 | -0.52670 | 238 ft | 15 kts | 36° |
| 2026-05-07 17:00 | 53.17267 | -0.52569 | 235 ft | 15 kts | 36° |
| 2026-05-07 17:00 | 53.17356 | -0.52462 | 230 ft | 16 kts | 36° |
| 2026-05-07 17:01 | 53.17446 | -0.52354 | 229 ft | 16 kts | 36° |
| 2026-05-07 17:01 | 53.17533 | -0.52249 | 228 ft | 15 kts | 35° |
| 2026-05-07 17:01 | 53.17613 | -0.52152 | 229 ft | 14 kts | 36° |
| 2026-05-07 17:01 | 53.17692 | -0.52058 | 229 ft | 14 kts | 35° |
| 2026-05-07 17:02 | 53.17767 | -0.51971 | 232 ft | 13 kts | 37° |
| 2026-05-07 17:02 | 53.17801 | -0.51866 | 232 ft | 9 kts | 110° |
| 2026-05-07 17:02 | 53.17773 | -0.51746 | 231 ft | 14 kts | 112° |
| 2026-05-07 17:02 | 53.17742 | -0.51664 | 231 ft | 5 kts | 158° |
| 2026-05-07 17:03 | 53.17702 | -0.51666 | 232 ft | 0 kts | 200° |
| 2026-05-07 17:03 | 53.17570 | -0.51751 | 228 ft | 64 kts | 201° |
| 2026-05-07 17:03 | 53.16911 | -0.52177 | 374 ft | 127 kts | 194° |
| 2026-05-07 17:03 | 53.15986 | -0.52777 | 833 ft | 159 kts | 199° |
| 2026-05-07 17:04 | 53.14894 | -0.53616 | 1306 ft | 184 kts | 210° |
| 2026-05-07 17:04 | 53.14198 | -0.55387 | 1790 ft | 192 kts | 268° |
| 2026-05-07 17:04 | 53.14597 | -0.57458 | 2284 ft | 193 kts | 309° |
| 2026-05-07 17:04 | 53.15499 | -0.59178 | 2759 ft | 200 kts | 321° |
| 2026-05-07 17:05 | 53.16584 | -0.60616 | 3223 ft | 205 kts | 325° |
| 2026-05-07 17:05 | 53.17711 | -0.62139 | 3696 ft | 212 kts | 322° |
| 2026-05-07 17:05 | 53.18835 | -0.63776 | 4173 ft | 217 kts | 320° |
| 2026-05-07 17:05 | 53.19969 | -0.65452 | 4654 ft | 219 kts | 320° |
| 2026-05-07 17:06 | 53.21119 | -0.67124 | 5123 ft | 220 kts | 320° |
| 2026-05-07 17:06 | 53.22283 | -0.68811 | 5594 ft | 223 kts | 319° |
| 2026-05-07 17:06 | 53.23454 | -0.70528 | 6072 ft | 226 kts | 318° |
| 2026-05-07 17:06 | 53.24645 | -0.72278 | 6544 ft | 231 kts | 317° |
| 2026-05-07 17:07 | 53.25858 | -0.74054 | 6992 ft | 232 kts | 318° |
| 2026-05-07 17:07 | 53.27054 | -0.75798 | 7433 ft | 231 kts | 318° |
| 2026-05-07 17:07 | 53.28256 | -0.77560 | 7892 ft | 229 kts | 318° |
| 2026-05-07 17:07 | 53.29451 | -0.79315 | 8361 ft | 228 kts | 318° |
| 2026-05-07 17:08 | 53.30639 | -0.81062 | 8828 ft | 227 kts | 318° |
| 2026-05-07 17:08 | 53.31818 | -0.82796 | 9305 ft | 225 kts | 318° |
| 2026-05-07 17:08 | 53.32995 | -0.84523 | 9793 ft | 225 kts | 317° |
| 2026-05-07 17:08 | 53.34167 | -0.86247 | 10241 ft | 224 kts | 317° |
| 2026-05-07 17:09 | 53.35318 | -0.87949 | 10674 ft | 224 kts | 317° |
| 2026-05-07 17:09 | 53.36487 | -0.89670 | 11116 ft | 224 kts | 317° |
| 2026-05-07 17:09 | 53.37653 | -0.91395 | 11567 ft | 224 kts | 316° |
| 2026-05-07 17:09 | 53.38495 | -0.93537 | 12045 ft | 222 kts | 288° |
| 2026-05-07 17:10 | 53.38789 | -0.96074 | 12509 ft | 223 kts | 279° |
| 2026-05-07 17:10 | 53.39031 | -0.98642 | 12981 ft | 223 kts | 279° |
| 2026-05-07 17:10 | 53.39275 | -1.01213 | 13462 ft | 224 kts | 279° |
| 2026-05-07 17:10 | 53.39519 | -1.03794 | 13935 ft | 225 kts | 279° |
| 2026-05-07 17:11 | 53.39765 | -1.06383 | 14367 ft | 225 kts | 279° |
| 2026-05-07 17:11 | 53.40010 | -1.08941 | 14799 ft | 225 kts | 279° |
| 2026-05-07 17:11 | 53.40259 | -1.11542 | 15245 ft | 226 kts | 279° |
| 2026-05-07 17:11 | 53.40505 | -1.14139 | 15694 ft | 226 kts | 279° |
| 2026-05-07 17:12 | 53.40754 | -1.16756 | 16113 ft | 229 kts | 279° |
| 2026-05-07 17:12 | 53.41004 | -1.19409 | 16473 ft | 233 kts | 279° |
| 2026-05-07 17:12 | 53.41256 | -1.22110 | 16840 ft | 235 kts | 279° |
| 2026-05-07 17:12 | 53.41509 | -1.24835 | 17211 ft | 238 kts | 279° |
| 2026-05-07 17:13 | 53.41771 | -1.27581 | 17588 ft | 239 kts | 279° |
| 2026-05-07 17:13 | 53.42029 | -1.30349 | 17971 ft | 241 kts | 279° |
| 2026-05-07 17:13 | 53.42283 | -1.33097 | 18344 ft | 243 kts | 279° |
| 2026-05-07 17:13 | 53.42543 | -1.35894 | 18682 ft | 244 kts | 279° |
| 2026-05-07 17:14 | 53.42804 | -1.38708 | 19017 ft | 245 kts | 279° |
| 2026-05-07 17:14 | 53.43064 | -1.41528 | 19357 ft | 245 kts | 278° |
| 2026-05-07 17:14 | 53.43325 | -1.44362 | 19701 ft | 246 kts | 278° |
| 2026-05-07 17:14 | 53.43585 | -1.47197 | 20050 ft | 247 kts | 278° |
| 2026-05-07 17:15 | 53.43758 | -1.49079 | 20280 ft | 247 kts | 278° |
| 2026-05-07 17:15 | 53.43837 | -1.49944 | 20386 ft | 247 kts | 278° |
| 2026-05-07 17:15 | 53.44097 | -1.52797 | 20745 ft | 248 kts | 278° |
| 2026-05-07 17:15 | 53.44358 | -1.55652 | 21104 ft | 248 kts | 278° |
| 2026-05-07 17:16 | 53.44619 | -1.58515 | 21467 ft | 248 kts | 278° |
| 2026-05-07 17:16 | 53.44880 | -1.61382 | 21837 ft | 249 kts | 278° |
| 2026-05-07 17:16 | 53.45145 | -1.64305 | 21989 ft | 258 kts | 278° |
| 2026-05-07 17:16 | 53.45419 | -1.67337 | 22013 ft | 268 kts | 278° |
| 2026-05-07 17:17 | 53.45701 | -1.70478 | 22021 ft | 276 kts | 278° |
| 2026-05-07 17:17 | 53.45986 | -1.73648 | 22027 ft | 281 kts | 278° |
| 2026-05-07 17:17 | 53.46279 | -1.76922 | 22027 ft | 286 kts | 278° |
| 2026-05-07 17:17 | 53.46575 | -1.80239 | 22022 ft | 289 kts | 278° |
| 2026-05-07 17:18 | 53.46873 | -1.83592 | 22024 ft | 291 kts | 278° |
| 2026-05-07 17:18 | 53.47171 | -1.86964 | 22026 ft | 293 kts | 278° |
| 2026-05-07 17:18 | 53.47470 | -1.90359 | 22026 ft | 295 kts | 278° |
| 2026-05-07 17:18 | 53.47769 | -1.93760 | 22026 ft | 295 kts | 278° |
| 2026-05-07 17:19 | 53.48068 | -1.97174 | 22027 ft | 296 kts | 278° |
| 2026-05-07 17:19 | 53.48362 | -2.00549 | 22027 ft | 296 kts | 278° |
| 2026-05-07 17:19 | 53.48660 | -2.03972 | 22027 ft | 297 kts | 278° |
| 2026-05-07 17:19 | 53.48956 | -2.07406 | 22025 ft | 297 kts | 277° |
| 2026-05-07 17:20 | 53.49253 | -2.10837 | 22027 ft | 297 kts | 277° |
| 2026-05-07 17:20 | 53.49549 | -2.14266 | 22024 ft | 297 kts | 277° |
| 2026-05-07 17:20 | 53.49843 | -2.17701 | 22027 ft | 297 kts | 277° |
| 2026-05-07 17:20 | 53.50135 | -2.21130 | 22025 ft | 297 kts | 277° |
| 2026-05-07 17:21 | 53.50427 | -2.24560 | 22027 ft | 297 kts | 277° |
| 2026-05-07 17:21 | 53.50718 | -2.27995 | 22025 ft | 297 kts | 277° |
| 2026-05-07 17:21 | 53.51004 | -2.31380 | 22025 ft | 297 kts | 277° |
| 2026-05-07 17:21 | 53.51293 | -2.34811 | 22026 ft | 297 kts | 277° |
| 2026-05-07 17:22 | 53.51570 | -2.38124 | 22023 ft | 297 kts | 277° |
| 2026-05-07 17:22 | 53.51857 | -2.41559 | 22020 ft | 297 kts | 277° |
| 2026-05-07 17:22 | 53.52144 | -2.44996 | 22023 ft | 297 kts | 277° |
| 2026-05-07 17:22 | 53.52429 | -2.48430 | 22020 ft | 297 kts | 277° |
| 2026-05-07 17:23 | 53.52713 | -2.51865 | 22017 ft | 297 kts | 277° |
| 2026-05-07 17:23 | 53.52996 | -2.55303 | 22016 ft | 297 kts | 277° |
| 2026-05-07 17:23 | 53.53274 | -2.58693 | 22014 ft | 297 kts | 277° |
| 2026-05-07 17:23 | 53.53555 | -2.62132 | 22015 ft | 297 kts | 277° |
| 2026-05-07 17:24 | 53.53835 | -2.65571 | 22015 ft | 298 kts | 277° |
| 2026-05-07 17:24 | 53.54116 | -2.69017 | 22012 ft | 298 kts | 277° |
| 2026-05-07 17:24 | 53.54394 | -2.72466 | 22014 ft | 297 kts | 277° |
| 2026-05-07 17:24 | 53.54672 | -2.75909 | 22001 ft | 297 kts | 277° |
| 2026-05-07 17:25 | 53.54949 | -2.79353 | 22000 ft | 297 kts | 277° |
| 2026-05-07 17:25 | 53.55224 | -2.82794 | 21999 ft | 297 kts | 277° |
| 2026-05-07 17:25 | 53.55498 | -2.86236 | 21995 ft | 297 kts | 277° |
| 2026-05-07 17:25 | 53.55771 | -2.89679 | 21995 ft | 297 kts | 277° |
| 2026-05-07 17:26 | 53.56040 | -2.93070 | 21999 ft | 297 kts | 277° |
| 2026-05-07 17:26 | 53.56309 | -2.96514 | 21999 ft | 297 kts | 277° |
| 2026-05-07 17:26 | 53.56581 | -2.99958 | 21999 ft | 297 kts | 277° |
| 2026-05-07 17:26 | 53.56853 | -3.03397 | 21998 ft | 297 kts | 277° |
| 2026-05-07 17:27 | 53.57120 | -3.06836 | 21999 ft | 297 kts | 276° |
| 2026-05-07 17:27 | 53.57385 | -3.10277 | 21996 ft | 297 kts | 276° |
| 2026-05-07 17:27 | 53.57652 | -3.13719 | 21998 ft | 297 kts | 276° |
| 2026-05-07 17:27 | 53.57917 | -3.17162 | 21999 ft | 296 kts | 276° |
| 2026-05-07 17:28 | 53.58181 | -3.20598 | 21996 ft | 296 kts | 276° |
| 2026-05-07 17:28 | 53.58440 | -3.23993 | 21998 ft | 296 kts | 276° |
| 2026-05-07 17:28 | 53.58703 | -3.27431 | 21996 ft | 296 kts | 276° |
| 2026-05-07 17:28 | 53.58963 | -3.30869 | 21995 ft | 296 kts | 276° |
| 2026-05-07 17:29 | 53.59223 | -3.34306 | 21996 ft | 296 kts | 276° |
| 2026-05-07 17:29 | 53.59481 | -3.37747 | 21997 ft | 296 kts | 276° |
| 2026-05-07 17:29 | 53.59739 | -3.41183 | 21995 ft | 296 kts | 276° |
| 2026-05-07 17:29 | 53.59996 | -3.44622 | 21995 ft | 296 kts | 276° |
| 2026-05-07 17:30 | 53.60252 | -3.48056 | 21997 ft | 296 kts | 276° |
| 2026-05-07 17:30 | 53.60506 | -3.51494 | 21990 ft | 296 kts | 276° |
| 2026-05-07 17:30 | 53.60760 | -3.54933 | 21991 ft | 296 kts | 276° |
| 2026-05-07 17:30 | 53.61009 | -3.58323 | 21993 ft | 296 kts | 276° |
| 2026-05-07 17:31 | 53.61261 | -3.61762 | 21992 ft | 296 kts | 276° |
| 2026-05-07 17:31 | 53.61545 | -3.65190 | 21991 ft | 296 kts | 282° |
| 2026-05-07 17:31 | 53.62412 | -3.68326 | 21990 ft | 299 kts | 302° |
| 2026-05-07 17:31 | 53.63610 | -3.71196 | 21991 ft | 299 kts | 303° |
| 2026-05-07 17:32 | 53.64814 | -3.74055 | 21990 ft | 299 kts | 303° |
| 2026-05-07 17:32 | 53.66015 | -3.76923 | 21992 ft | 299 kts | 303° |
| 2026-05-07 17:32 | 53.67212 | -3.79795 | 21991 ft | 300 kts | 303° |
| 2026-05-07 17:32 | 53.68393 | -3.82636 | 21993 ft | 299 kts | 303° |
| 2026-05-07 17:33 | 53.69589 | -3.85510 | 21994 ft | 300 kts | 303° |
| 2026-05-07 17:33 | 53.70786 | -3.88390 | 21993 ft | 300 kts | 303° |
| 2026-05-07 17:33 | 53.71980 | -3.91268 | 21991 ft | 300 kts | 303° |
| 2026-05-07 17:33 | 53.73176 | -3.94152 | 21993 ft | 300 kts | 302° |
| 2026-05-07 17:34 | 53.74369 | -3.97034 | 21991 ft | 300 kts | 302° |
| 2026-05-07 17:34 | 53.75564 | -3.99922 | 21988 ft | 300 kts | 302° |
| 2026-05-07 17:34 | 53.76755 | -4.02809 | 21988 ft | 300 kts | 302° |
| 2026-05-07 17:34 | 53.77946 | -4.05694 | 21990 ft | 300 kts | 302° |
| 2026-05-07 17:35 | 53.79122 | -4.08549 | 21988 ft | 300 kts | 302° |
| 2026-05-07 17:35 | 53.80312 | -4.11438 | 21990 ft | 300 kts | 302° |
| 2026-05-07 17:35 | 53.81503 | -4.14335 | 21987 ft | 300 kts | 302° |
| 2026-05-07 17:35 | 53.82691 | -4.17227 | 21988 ft | 300 kts | 302° |
| 2026-05-07 17:36 | 53.83881 | -4.20128 | 21987 ft | 300 kts | 302° |
| 2026-05-07 17:36 | 53.85071 | -4.23028 | 21987 ft | 300 kts | 302° |
| 2026-05-07 17:36 | 53.86262 | -4.25934 | 21981 ft | 300 kts | 302° |
| 2026-05-07 17:36 | 53.87450 | -4.28835 | 21982 ft | 300 kts | 302° |
| 2026-05-07 17:37 | 53.88639 | -4.31746 | 21980 ft | 300 kts | 302° |
| 2026-05-07 17:37 | 53.89810 | -4.34612 | 21983 ft | 300 kts | 302° |
| 2026-05-07 17:37 | 53.90997 | -4.37525 | 21977 ft | 300 kts | 302° |
| 2026-05-07 17:37 | 53.92184 | -4.40439 | 21979 ft | 300 kts | 302° |
| 2026-05-07 17:38 | 53.93372 | -4.43358 | 21980 ft | 300 kts | 302° |
| 2026-05-07 17:38 | 53.94558 | -4.46277 | 21975 ft | 300 kts | 302° |
| 2026-05-07 17:38 | 53.95742 | -4.49194 | 21975 ft | 300 kts | 302° |
| 2026-05-07 17:38 | 53.96928 | -4.52118 | 21977 ft | 300 kts | 302° |
| 2026-05-07 17:39 | 53.98112 | -4.55043 | 21978 ft | 300 kts | 302° |
| 2026-05-07 17:39 | 53.99279 | -4.57927 | 21975 ft | 301 kts | 301° |
| 2026-05-07 17:39 | 54.00461 | -4.60855 | 21977 ft | 301 kts | 301° |
| 2026-05-07 17:39 | 54.01647 | -4.63792 | 21975 ft | 301 kts | 301° |
| 2026-05-07 17:40 | 54.02828 | -4.66725 | 21976 ft | 301 kts | 301° |
| 2026-05-07 17:40 | 54.04004 | -4.69665 | 21975 ft | 300 kts | 300° |
| 2026-05-07 17:40 | 54.05172 | -4.72614 | 21975 ft | 300 kts | 301° |
| 2026-05-07 17:40 | 54.06363 | -4.75535 | 21972 ft | 301 kts | 301° |
| 2026-05-07 17:41 | 54.07607 | -4.78409 | 21973 ft | 302 kts | 303° |
| 2026-05-07 17:41 | 54.08803 | -4.81333 | 21974 ft | 301 kts | 300° |
| 2026-05-07 17:41 | 54.09975 | -4.84286 | 21974 ft | 301 kts | 301° |
| 2026-05-07 17:41 | 54.11170 | -4.87158 | 21974 ft | 301 kts | 302° |
| 2026-05-07 17:42 | 54.12391 | -4.90055 | 21974 ft | 301 kts | 302° |
| 2026-05-07 17:42 | 54.13598 | -4.92969 | 21974 ft | 301 kts | 301° |
| 2026-05-07 17:42 | 54.14802 | -4.95888 | 21971 ft | 301 kts | 301° |
| 2026-05-07 17:42 | 54.16007 | -4.98810 | 21973 ft | 301 kts | 301° |
| 2026-05-07 17:43 | 54.17212 | -5.01730 | 21971 ft | 301 kts | 301° |
| 2026-05-07 17:43 | 54.18419 | -5.04654 | 21969 ft | 301 kts | 301° |
| 2026-05-07 17:43 | 54.19623 | -5.07579 | 21967 ft | 301 kts | 301° |
| 2026-05-07 17:43 | 54.20826 | -5.10502 | 21964 ft | 301 kts | 301° |
| 2026-05-07 17:44 | 54.22015 | -5.13392 | 21963 ft | 301 kts | 302° |
| 2026-05-07 17:44 | 54.23222 | -5.16321 | 21961 ft | 301 kts | 301° |
| 2026-05-07 17:44 | 54.24427 | -5.19251 | 21961 ft | 301 kts | 301° |
| 2026-05-07 17:44 | 54.25628 | -5.22186 | 21958 ft | 301 kts | 301° |
| 2026-05-07 17:45 | 54.26830 | -5.25124 | 21960 ft | 301 kts | 301° |
| 2026-05-07 17:45 | 54.28030 | -5.28064 | 21959 ft | 301 kts | 301° |
| 2026-05-07 17:45 | 54.29229 | -5.30998 | 21953 ft | 301 kts | 301° |
| 2026-05-07 17:45 | 54.30433 | -5.33941 | 21948 ft | 302 kts | 300° |
| 2026-05-07 17:46 | 54.31650 | -5.36898 | 21414 ft | 305 kts | 301° |
| 2026-05-07 17:46 | 54.32857 | -5.39832 | 20802 ft | 305 kts | 300° |
| 2026-05-07 17:46 | 54.34055 | -5.42802 | 20192 ft | 301 kts | 300° |
| 2026-05-07 17:46 | 54.35241 | -5.45742 | 19582 ft | 298 kts | 300° |
| 2026-05-07 17:47 | 54.36420 | -5.48645 | 19007 ft | 296 kts | 300° |
| 2026-05-07 17:47 | 54.37589 | -5.51526 | 18433 ft | 293 kts | 300° |
| 2026-05-07 17:47 | 54.38750 | -5.54394 | 17808 ft | 291 kts | 300° |
| 2026-05-07 17:47 | 54.39900 | -5.57238 | 17161 ft | 290 kts | 300° |
| 2026-05-07 17:48 | 54.41031 | -5.60032 | 16529 ft | 284 kts | 300° |
| 2026-05-07 17:48 | 54.42146 | -5.62799 | 15910 ft | 280 kts | 300° |
| 2026-05-07 17:48 | 54.43231 | -5.65496 | 15308 ft | 277 kts | 300° |
| 2026-05-07 17:48 | 54.44319 | -5.68201 | 14711 ft | 274 kts | 300° |
| 2026-05-07 17:49 | 54.45398 | -5.70884 | 14124 ft | 271 kts | 300° |
| 2026-05-07 17:49 | 54.46464 | -5.73541 | 13520 ft | 269 kts | 300° |
| 2026-05-07 17:49 | 54.47521 | -5.76177 | 12876 ft | 267 kts | 300° |
| 2026-05-07 17:49 | 54.48570 | -5.78793 | 12255 ft | 265 kts | 300° |
| 2026-05-07 17:50 | 54.49610 | -5.81390 | 11628 ft | 263 kts | 300° |
| 2026-05-07 17:50 | 54.50643 | -5.83978 | 11019 ft | 261 kts | 300° |
| 2026-05-07 17:50 | 54.51669 | -5.86548 | 10425 ft | 260 kts | 300° |
| 2026-05-07 17:50 | 54.52677 | -5.89070 | 9846 ft | 259 kts | 300° |
| 2026-05-07 17:51 | 54.53689 | -5.91615 | 9204 ft | 256 kts | 300° |
| 2026-05-07 17:51 | 54.54697 | -5.94141 | 8567 ft | 255 kts | 300° |
| 2026-05-07 17:51 | 54.55699 | -5.96660 | 7948 ft | 254 kts | 300° |
| 2026-05-07 17:51 | 54.56695 | -5.99168 | 7337 ft | 253 kts | 300° |
| 2026-05-07 17:52 | 54.57688 | -6.01665 | 6743 ft | 252 kts | 300° |
| 2026-05-07 17:52 | 54.58675 | -6.04162 | 6138 ft | 252 kts | 300° |
| 2026-05-07 17:52 | 54.59659 | -6.06645 | 5492 ft | 250 kts | 301° |
| 2026-05-07 17:52 | 54.60639 | -6.09116 | 4878 ft | 249 kts | 301° |
| 2026-05-07 17:53 | 54.61597 | -6.11542 | 4268 ft | 247 kts | 300° |
| 2026-05-07 17:53 | 54.62552 | -6.13972 | 3995 ft | 240 kts | 300° |
| 2026-05-07 17:53 | 54.63474 | -6.16295 | 3980 ft | 229 kts | 301° |
| 2026-05-07 17:53 | 54.64370 | -6.18558 | 3979 ft | 229 kts | 300° |
| 2026-05-07 17:54 | 54.65261 | -6.20854 | 3976 ft | 230 kts | 299° |
| 2026-05-07 17:54 | 54.66304 | -6.22949 | 3862 ft | 239 kts | 322° |
| 2026-05-07 17:54 | 54.67822 | -6.23971 | 3447 ft | 229 kts | 341° |
| 2026-05-07 17:54 | 54.69335 | -6.24783 | 3247 ft | 228 kts | 337° |
| 2026-05-07 17:55 | 54.70839 | -6.25682 | 3070 ft | 228 kts | 338° |
| 2026-05-07 17:55 | 54.72325 | -6.26524 | 2887 ft | 227 kts | 339° |
| 2026-05-07 17:55 | 54.73619 | -6.27247 | 2730 ft | 226 kts | 338° |
| 2026-05-07 17:55 | 54.75111 | -6.28116 | 2560 ft | 226 kts | 337° |
| 2026-05-07 17:56 | 54.76554 | -6.29091 | 2513 ft | 219 kts | 325° |
| 2026-05-07 17:56 | 54.77517 | -6.30949 | 2515 ft | 204 kts | 294° |
| 2026-05-07 17:56 | 54.78150 | -6.33131 | 2494 ft | 202 kts | 292° |
| 2026-05-07 17:56 | 54.78790 | -6.35296 | 2477 ft | 201 kts | 293° |
| 2026-05-07 17:57 | 54.79415 | -6.37441 | 2478 ft | 199 kts | 292° |
| 2026-05-07 17:57 | 54.79825 | -6.38860 | 2476 ft | 199 kts | 292° |
| 2026-05-07 17:57 | 54.80770 | -6.41555 | 2468 ft | 202 kts | 315° |
| 2026-05-07 17:57 | 54.82034 | -6.42647 | 2473 ft | 205 kts | 340° |
| 2026-05-07 17:58 | 54.83450 | -6.42522 | 2483 ft | 210 kts | 19° |
| 2026-05-07 17:58 | 54.84619 | -6.41047 | 2478 ft | 210 kts | 53° |
| 2026-05-07 17:58 | 54.85140 | -6.38731 | 2481 ft | 208 kts | 88° |
| 2026-05-07 17:58 | 54.84878 | -6.36332 | 2483 ft | 201 kts | 122° |
| 2026-05-07 17:59 | 54.83969 | -6.34596 | 2489 ft | 192 kts | 153° |
| 2026-05-07 17:59 | 54.82799 | -6.33468 | 2482 ft | 194 kts | 153° |
| 2026-05-07 17:59 | 54.81655 | -6.32181 | 2481 ft | 197 kts | 151° |
| 2026-05-07 17:59 | 54.80448 | -6.31175 | 2485 ft | 195 kts | 163° |
| 2026-05-07 18:00 | 54.79180 | -6.30412 | 2468 ft | 187 kts | 165° |
| 2026-05-07 18:00 | 54.77981 | -6.29720 | 2469 ft | 177 kts | 166° |
| 2026-05-07 18:00 | 54.76849 | -6.29077 | 2475 ft | 168 kts | 166° |
| 2026-05-07 18:00 | 54.75726 | -6.28458 | 2371 ft | 174 kts | 165° |
| 2026-05-07 18:01 | 54.74543 | -6.27795 | 2133 ft | 184 kts | 165° |
| 2026-05-07 18:01 | 54.73300 | -6.27098 | 1873 ft | 191 kts | 166° |
| 2026-05-07 18:01 | 54.72044 | -6.26392 | 1609 ft | 181 kts | 166° |
| 2026-05-07 18:01 | 54.70944 | -6.25769 | 1375 ft | 158 kts | 166° |
| 2026-05-07 18:02 | 54.69038 | -6.24684 | 963 ft | 135 kts | 165° |
| 2026-05-07 18:02 | 54.68172 | -6.24199 | 778 ft | 127 kts | 164° |
| 2026-05-07 18:02 | 54.67348 | -6.23726 | 628 ft | 122 kts | 164° |
| 2026-05-07 18:03 | 54.66575 | -6.23297 | 459 ft | 112 kts | 165° |
| 2026-05-07 18:03 | 54.65856 | -6.22901 | 287 ft | 105 kts | 164° |
| 2026-05-07 18:03 | 54.65214 | -6.22540 | 251 ft | 85 kts | 162° |
| 2026-05-07 18:03 | 54.64888 | -6.22355 | 251 ft | 24 kts | 162° |
| 2026-05-07 18:04 | 54.64789 | -6.22301 | 250 ft | 19 kts | 163° |
| 2026-05-07 18:04 | 54.64666 | -6.22232 | 249 ft | 10 kts | 160° |
| 2026-05-07 18:04 | 54.64583 | -6.22183 | 248 ft | 13 kts | 162° |
| 2026-05-07 18:04 | 54.64509 | -6.22128 | 247 ft | 14 kts | 121° |
| 2026-05-07 18:05 | 54.64556 | -6.22041 | 252 ft | 16 kts | 18° |
| 2026-05-07 18:05 | 54.64684 | -6.22080 | 253 ft | 22 kts | 342° |
| 2026-05-07 18:05 | 54.64842 | -6.22166 | 253 ft | 25 kts | 343° |
| 2026-05-07 18:05 | 54.64998 | -6.22269 | 253 ft | 25 kts | 341° |
| 2026-05-07 18:06 | 54.65135 | -6.22256 | 253 ft | 19 kts | 39° |
| 2026-05-07 18:06 | 54.65229 | -6.22235 | 253 ft | 7 kts | 25° |
| 2026-05-07 18:06 | 54.65235 | -6.22217 | 253 ft | 0 kts | 76° |